Terminal Aerodrome Forecast
Issued by NWS

Home | Current Version | Previous Version | Text Only | Print | Product List | Glossary On
Versions: 1 2 3 4 5 6 7 8 9 10 11 12
000
FTUS42 TJSJ 230500
TAFISX
TAF
TISX 230531Z 2306/2406 07009KT P6SM VCSH FEW019
     FM231300 11013G18KT P6SM SCT025 SCT050
     FM232300 08010KT P6SM FEW025=

USA.gov is the U.S. government's official web portal to all federal, state and local government web resources and services.